Flight Number: EUR1169 Duration: 1:45
Departure: Warsaw Okecie (EPWA) at 08:30 Distance: 623 Nm
Arrival: Moscow Sheremetyevo (UUEE) at 10:15 Equipment: B737

Weather Information
404 Not Found

Not Found

The requested URL /data/observations/metar/decoded/EPWA.TXT was not found on this server.


Sunrise: 02:33 Sunset: 18:32 (UTC)

Moscow / Sheremet'Ye , Russia (UUEE) 55-59N 037-30E May 24, 2018 - 05:00 PM EDT / 2018.05.24 2100 UTC
Wind: from the N (360 degrees) at 7 MPH (6 KT):0
Visibility: greater than 7 mile(s):0 Temperature: 59 F (15 C) Dew Point: 51 F (11 C) Relative Humidity: 76% Pressure (altimeter): 30.18 in. Hg (1022 hPa)
ob: UUEE 242100Z 36003MPS CAVOK 15/11 Q1022 R06R/CLRD62 NOSIG cycle: 21
Sunrise: 01:07 Sunset: 17:47 (UTC)

TAF:2018/05/24 21:24 TAF UUEE 241953Z 2421/2521 01004MPS CAVOK TX20/2513Z TN10/2502Z

Previous Pireps for this route
Date Aircraft Flight time Fuel used Landing rate On time
2012-11-05B73701.5510436-281No
2013-07-08B73701.5413701-389No
2013-08-09B73701.5110394-263No
2014-03-10B73701.519791-164Yes
2014-04-15B73701.4910284-321Yes
2014-06-01B73701.4010306-203Yes
2015-03-15B7371.55108000Charter
(pireps marked green are flown by you)

Route map